Pierre, SD (57501)

9:37 PM CDT on June 27, 2017 (GMT -0500)
GrodeHome | | Change Station
Active Advisory: Severe Thunderstorm Watch

Elev 1578 ft 44.38 °N, 100.35 °W | Updated 12 seconds ago

Overcast
Overcast
72.9 °F
Feels Like 75 °F
N
4.9
Wind Variable Wind from NW
Gusts 23.7 mph

Today
High -- | Low -- °F
--% Chance of Precip.
Yesterday
High -- | Low -- °F
Precip. -- in
Pressure 29.57 in
Visibility 10.0 miles
Clouds Few 5000 ft
Few 12000 ft
Heat Index 75 °F
Dew Point 62 °F
Humidity 68%
Rainfall 0.00 in
Snow Depth Not available.
5:59 AM 9:29 PM
Waxing Crescent, 21% visible
SPECI KPIR 280228Z AUTO 25017G31KT 10SM VCTS -RA FEW050 FEW120 21/14 A2957 RMK AO2 PK WND 24043/0154 WSHFT 0141 LTG DSNT ALQDS RAB03 TSB06E22 P0000 T02060144
Pressure 29.57 in
Visibility 10.0 miles
Clouds Few 5000 ft
Few 12000 ft
Heat Index 75 °F
Dew Point 62 °F
Humidity 68%
Rainfall 0.00 in
Snow Depth Not available.
5:59 AM 9:29 PM
Waxing Crescent, 21% visible
SPECI KPIR 280228Z AUTO 25017G31KT 10SM VCTS -RA FEW050 FEW120 21/14 A2957 RMK AO2 PK WND 24043/0154 WSHFT 0141 LTG DSNT ALQDS RAB03 TSB06E22 P0000 T02060144

Get Your Daily Forecast Email!

Thanks for signing up!

Be on the lookout for a verification email in your inbox.

You'll start receiving severe weather alerts in your inbox..

×

10-Day Weather Forecast

Almanac

Astronomy

Jun. 27, 2017 Rise Set
Actual Time
Civil Twilight
Nautical Twilight
Astronomical Twilight
Moon
Length of Visible Light
Length of Day
Tomorrow will be .
, % of the Moon is Illuminated

Today's Extremes

State Highs State Lows

Community

WunderPhotos

Category 6

Welcome to Category 6. This is the collective home for Weather Underground's featured writeups by Dr. Jeff Masters (right), Bob Henson (left), Chris Burt, and other regular contributors.

Nearby

Air Quality

  Air Quality AQ Index Pollutant
Not available.

Snow Depth

Station Depth Elevation

Earthquake Activity

City Distance Mag. Time & Date
Minimum magnitude displayed is 2.5.

Coastal Water Temperatures

Place Temperature

Stations

Nearby Weather Stations

Station Location Temp. Windchill Dew Point Humidity Wind Precip. Elev Updated Type
                   

Watches & Warnings

Severe Thunderstorm Watch
Issued: 9:24 PM CDT Jun. 27, 2017 – National Weather Service

Severe Thunderstorm Watch 373 remains in effect until 100 am CDT
for the following locations


SD
. South Dakota counties included are

Aurora Brule Buffalo
Charles Mix Douglas Gregory
hand Hughes Hyde
Jerauld Jones Lyman
Stanley Sully